Strona główna
METAR-TAF:

METAR-TAF

Lotnisko :

Morrisville-Stowe State Airport

Morrisville, Vermont, Stany Zjednoczone

Szerokość geograficzna: 44-32-10N, Długość geograficzna: 072-36-58W, wysokość: 223 m

Aktualna obserwacja pogody

Raport powstał 24 minut temu, godzina 15:20 UTC
Cisza
Temperatura -3°C
Wilgotność 93%
Ciśnienie 1001 hPa
Widzialność: 6.4 km
Przerywane chmury na wysokości 1300 ft
Zachmurzenie całkowite na wysokości 3000 ft
słaby śnieg, zamglenie

METAR: KMVL 221520Z AUTO 00000KT 4SM -SN BR BKN013 OVC030 M03/M04 A2957 RMK AO2 P0000 T10281044

czas: 10:44 (15:44 UTC)


TAF: brakujący

Obserwacja i prognoza pogody dla ponad 4000 lotnisk (raport METAR i TAF).

Dostępne stacje oznaczono żółtymi i czerwonymi punktami na mapie.

Najedź kursorem aby zobaczyć nazwę stacji.

Kliknij aby zobaczyć obserwacje i prognozy pogody.

Aby zmienić mapę: kliknij na zielony przycisk z czarnym krzyżykiem, aby powiększyć; na zielony przycisk z myślnikiem, aby pomniejszyć; na zielone strzałki, aby przejść do map sąsiednich.


METAR-TAF: